Time;durP1;ratioP1;P1;durP2;ratioP2;P2;SDS_P1;SDS_P2;PMS_P1;PMS_P2;Temp;Humidity;BMP_temperature;BMP_pressure;BME280_temperature;BME280_humidity;BME280_pressure;Samples;Min_cycle;Max_cycle;Signal;HPM_P1;HPM_P2
2021/10/31 00:01:29;;;;;;;5.47;1.48;;;11.10;99.90;;;;;;5113361;28;20031;-68
2021/10/31 00:03:55;;;;;;;5.50;1.40;;;11.10;99.90;;;;;;5099545;28;20039;-68
2021/10/31 00:06:21;;;;;;;6.93;1.55;;;11.00;99.90;;;;;;5098961;28;20032;-68
2021/10/31 00:08:48;;;;;;;6.85;1.40;;;11.10;99.90;;;;;;5099161;28;20069;-68
2021/10/31 00:11:16;;;;;;;4.30;1.60;;;11.20;99.90;;;;;;5099075;28;20105;-68
2021/10/31 00:13:42;;;;;;;10.55;1.80;;;11.20;99.90;;;;;;5097849;28;20027;-68
2021/10/31 00:16:08;;;;;;;5.05;1.33;;;11.20;99.90;;;;;;5098999;28;20031;-67
2021/10/31 00:18:34;;;;;;;11.93;3.15;;;11.30;99.90;;;;;;5099050;28;20488;-68
2021/10/31 00:20:59;;;;;;;6.45;2.10;;;11.30;99.90;;;;;;5098631;28;20034;-67
2021/10/31 00:23:26;;;;;;;10.10;1.83;;;11.30;99.90;;;;;;5098862;28;20081;-68
2021/10/31 00:25:52;;;;;;;3.88;1.55;;;11.40;99.90;;;;;;5098830;28;20036;-68
2021/10/31 00:28:18;;;;;;;3.30;1.20;;;11.50;99.90;;;;;;5097575;28;20024;-68
2021/10/31 00:30:44;;;;;;;6.47;1.77;;;11.50;99.90;;;;;;5097804;28;20033;-67
2021/10/31 00:33:10;;;;;;;7.50;1.70;;;11.50;99.90;;;;;;5098755;28;20383;-68
2021/10/31 00:35:36;;;;;;;6.15;1.50;;;11.50;99.90;;;;;;5098797;28;20360;-67
2021/10/31 00:38:03;;;;;;;8.07;1.70;;;11.50;99.90;;;;;;5098374;28;20066;-68
2021/10/31 00:40:29;;;;;;;7.65;1.40;;;11.60;99.90;;;;;;5098568;28;20480;-68
2021/10/31 00:42:55;;;;;;;6.97;1.60;;;11.60;99.90;;;;;;5098593;28;20598;-68
2021/10/31 00:45:21;;;;;;;8.32;2.42;;;11.60;99.90;;;;;;5096965;28;20024;-68
2021/10/31 00:47:48;;;;;;;7.03;1.55;;;11.80;99.90;;;;;;5098657;28;20563;-68
2021/10/31 00:50:17;;;;;;;2.95;1.67;;;11.70;99.90;;;;;;5098284;28;20023;-67
2021/10/31 00:52:42;;;;;;;6.93;1.30;;;11.80;99.90;;;;;;5098081;28;20023;-68
2021/10/31 00:55:08;;;;;;;6.82;1.55;;;11.80;99.90;;;;;;5098229;28;20028;-68
2021/10/31 00:57:36;;;;;;;4.65;1.40;;;12.00;99.90;;;;;;5098073;28;20054;-67
2021/10/31 01:00:04;;;;;;;6.15;1.40;;;12.00;99.90;;;;;;5099003;28;20020;-67
2021/10/31 01:02:30;;;;;;;4.95;1.63;;;12.10;99.90;;;;;;5098403;28;20024;-68
2021/10/31 01:05:01;;;;;;;7.70;1.70;;;12.30;99.90;;;;;;5098023;28;20053;-67
2021/10/31 01:07:52;;;;;;;4.97;2.05;;;12.20;99.90;;;;;;5097603;28;20024;-68
2021/10/31 01:10:27;;;;;;;11.13;1.75;;;12.30;99.90;;;;;;5098107;28;20086;-68
2021/10/31 01:13:19;;;;;;;6.55;1.70;;;12.40;99.90;;;;;;5097863;28;20121;-68
2021/10/31 01:16:10;;;;;;;7.53;1.40;;;12.40;99.90;;;;;;5098144;28;20028;-68
2021/10/31 01:18:55;;;;;;;6.38;1.90;;;12.50;99.90;;;;;;5097976;28;20442;-68
2021/10/31 01:21:39;;;;;;;8.65;1.75;;;12.50;99.90;;;;;;5097586;28;20035;-67
2021/10/31 01:24:34;;;;;;;8.75;1.98;;;12.60;99.90;;;;;;5097904;28;20030;-68
2021/10/31 01:27:03;;;;;;;17.52;1.95;;;12.70;99.90;;;;;;5098021;28;20422;-68
2021/10/31 01:30:00;;;;;;;7.68;1.55;;;12.60;99.90;;;;;;5097669;28;20105;-68
2021/10/31 01:32:56;;;;;;;10.00;2.38;;;12.80;99.90;;;;;;5097834;28;20048;-68
2021/10/31 01:35:52;;;;;;;10.77;2.33;;;12.80;99.90;;;;;;5097837;28;20020;-68
2021/10/31 01:38:31;;;;;;;4.93;1.45;;;12.80;99.90;;;;;;5096267;28;20016;-68
2021/10/31 01:41:09;;;;;;;6.82;1.73;;;12.80;99.90;;;;;;5097282;28;20441;-68
2021/10/31 01:44:05;;;;;;;6.07;1.73;;;12.80;99.90;;;;;;5097636;28;20103;-67
2021/10/31 01:46:51;;;;;;;13.32;1.52;;;12.80;99.90;;;;;;5097650;28;20017;-68
2021/10/31 01:49:39;;;;;;;4.10;1.38;;;12.90;99.90;;;;;;5097803;28;20103;-67
2021/10/31 01:52:11;;;;;;;7.18;1.67;;;12.90;99.90;;;;;;5095680;28;20024;-68
2021/10/31 01:55:00;;;;;;;6.47;1.70;;;12.90;99.90;;;;;;5097471;28;20016;-68
2021/10/31 01:57:29;;;;;;;11.80;1.63;;;12.80;99.90;;;;;;5080717;28;20083;-68
2021/10/31 02:00:06;;;;;;;13.32;1.92;;;12.80;99.90;;;;;;5094906;28;20090;-67
2021/10/31 02:02:40;;;;;;;12.15;1.70;;;13.00;99.90;;;;;;5106758;28;20042;-68
2021/10/31 02:05:07;;;;;;;8.05;3.50;;;12.90;99.90;;;;;;5097252;28;20024;-68
2021/10/31 02:07:37;;;;;;;5.18;1.23;;;12.90;99.90;;;;;;5097127;28;20159;-68
2021/10/31 02:10:04;;;;;;;5.95;2.45;;;12.90;99.90;;;;;;5097167;28;20020;-68
2021/10/31 02:12:31;;;;;;;7.38;1.45;;;12.90;99.90;;;;;;5097536;28;20104;-67
2021/10/31 02:14:57;;;;;;;6.03;1.10;;;12.80;99.90;;;;;;5097173;28;20103;-67
2021/10/31 02:17:24;;;;;;;3.42;1.30;;;12.90;99.90;;;;;;5097853;28;20103;-67
2021/10/31 02:19:52;;;;;;;9.73;2.10;;;12.90;99.90;;;;;;5097070;28;20032;-67
2021/10/31 02:22:28;;;;;;;4.97;1.80;;;12.80;99.90;;;;;;5097141;28;20016;-67
2021/10/31 02:24:55;;;;;;;9.50;1.45;;;12.80;99.90;;;;;;5097332;28;20468;-68
2021/10/31 02:27:23;;;;;;;5.95;1.48;;;12.90;99.90;;;;;;5097044;28;20032;-68
2021/10/31 02:29:59;;;;;;;7.05;1.60;;;12.80;99.90;;;;;;5097405;28;20048;-67
2021/10/31 02:32:29;;;;;;;8.50;1.83;;;13.00;99.90;;;;;;5097177;28;20020;-67
2021/10/31 02:34:56;;;;;;;7.70;1.45;;;12.80;99.90;;;;;;5097395;28;20025;-67
2021/10/31 02:37:24;;;;;;;14.07;1.50;;;13.00;99.90;;;;;;5095344;28;20404;-67
2021/10/31 02:39:50;;;;;;;9.98;3.28;;;13.00;99.90;;;;;;5097319;28;20069;-67
2021/10/31 02:42:16;;;;;;;12.40;2.20;;;12.90;99.90;;;;;;5096965;28;20013;-67
2021/10/31 02:44:43;;;;;;;6.43;1.30;;;13.00;99.90;;;;;;5097210;28;20035;-68
2021/10/31 02:47:14;;;;;;;13.32;2.65;;;13.00;99.90;;;;;;5096870;28;20373;-67
2021/10/31 02:49:40;;;;;;;16.40;2.17;;;13.00;99.90;;;;;;5097031;28;20054;-67
2021/10/31 02:52:18;;;;;;;9.30;1.83;;;12.90;99.90;;;;;;5096458;28;20048;-67
2021/10/31 02:55:07;;;;;;;12.25;2.05;;;13.00;99.90;;;;;;5099966;28;20016;-67
2021/10/31 02:57:53;;;;;;;8.05;2.00;;;12.90;99.90;;;;;;5100422;28;20127;-67
2021/10/31 03:00:20;;;;;;;6.20;1.70;;;13.00;99.90;;;;;;5105519;28;20031;-67
2021/10/31 03:02:48;;;;;;;17.92;4.25;;;12.90;99.90;;;;;;5108124;27;20039;-67
2021/10/31 03:05:14;;;;;;;11.48;1.92;;;12.90;99.90;;;;;;5098970;28;20028;-67
2021/10/31 03:07:40;;;;;;;8.20;2.65;;;12.90;99.90;;;;;;5100167;28;20067;-67
2021/10/31 03:10:07;;;;;;;12.40;3.00;;;13.00;99.90;;;;;;5098798;28;20028;-68
2021/10/31 03:12:32;;;;;;;9.15;1.90;;;12.90;99.90;;;;;;5100492;28;20066;-67
2021/10/31 03:14:58;;;;;;;7.90;1.50;;;12.90;99.90;;;;;;5100284;28;20024;-67
2021/10/31 03:17:24;;;;;;;15.82;2.40;;;12.90;99.90;;;;;;5100416;28;20016;-67
2021/10/31 03:19:50;;;;;;;8.23;1.58;;;13.00;99.90;;;;;;5100192;28;20046;-67
2021/10/31 03:22:16;;;;;;;8.43;1.65;;;13.10;99.90;;;;;;5099865;28;20031;-67
2021/10/31 03:24:42;;;;;;;10.25;1.33;;;13.00;99.90;;;;;;5100121;28;20024;-68
2021/10/31 03:27:08;;;;;;;9.35;1.63;;;12.90;99.90;;;;;;5099946;28;20039;-67
2021/10/31 03:29:34;;;;;;;6.07;1.60;;;13.10;99.90;;;;;;5100055;28;20866;-68
2021/10/31 03:32:00;;;;;;;5.28;1.45;;;13.00;99.90;;;;;;5099866;28;20070;-68
2021/10/31 03:34:26;;;;;;;8.45;1.73;;;13.10;99.90;;;;;;5100163;28;20024;-68
2021/10/31 03:36:52;;;;;;;11.23;2.53;;;12.90;99.90;;;;;;5099649;28;20067;-67
2021/10/31 03:39:18;;;;;;;5.07;1.90;;;13.20;99.90;;;;;;5099886;28;20024;-68
2021/10/31 03:41:45;;;;;;;12.70;1.90;;;13.10;99.90;;;;;;5099759;28;20032;-68
2021/10/31 03:44:14;;;;;;;8.02;1.67;;;13.20;99.90;;;;;;5099768;28;20020;-68
2021/10/31 03:46:41;;;;;;;7.45;1.60;;;13.20;99.90;;;;;;5099445;28;20039;-67
2021/10/31 03:49:07;;;;;;;11.00;2.45;;;13.20;99.90;;;;;;5098311;28;20024;-67
2021/10/31 03:51:34;;;;;;;11.57;2.80;;;13.30;99.90;;;;;;5099262;28;20085;-67
2021/10/31 03:54:01;;;;;;;10.38;2.67;;;13.40;99.90;;;;;;5098161;28;20020;-67
2021/10/31 03:56:26;;;;;;;14.00;2.10;;;13.40;99.90;;;;;;5099398;28;20056;-68
2021/10/31 03:58:52;;;;;;;13.40;1.80;;;13.60;99.90;;;;;;5099466;28;20020;-68
2021/10/31 04:01:18;;;;;;;14.00;2.50;;;13.70;99.90;;;;;;5112155;28;20391;-67
2021/10/31 04:03:44;;;;;;;15.40;1.80;;;13.80;99.90;;;;;;5099371;28;20099;-70
2021/10/31 04:06:12;;;;;;;14.10;2.22;;;13.90;99.90;;;;;;5098859;28;20109;-67
2021/10/31 04:08:40;;;;;;;11.15;3.25;;;14.00;99.90;;;;;;5099213;28;20481;-68
2021/10/31 04:11:07;;;;;;;11.43;1.95;;;14.10;99.90;;;;;;5099175;28;20028;-67
2021/10/31 04:13:34;;;;;;;12.55;2.30;;;14.10;99.90;;;;;;5099439;28;20017;-68
2021/10/31 04:16:00;;;;;;;12.07;2.17;;;14.20;99.90;;;;;;5099038;28;20031;-68
2021/10/31 04:18:26;;;;;;;13.93;2.45;;;14.30;99.90;;;;;;5099332;28;20503;-68
2021/10/31 04:20:52;;;;;;;13.38;1.92;;;14.30;99.90;;;;;;5099095;28;20046;-67
2021/10/31 04:23:17;;;;;;;14.02;2.13;;;14.30;99.90;;;;;;5098862;28;20016;-68
2021/10/31 04:25:43;;;;;;;10.85;2.05;;;14.50;99.90;;;;;;5097401;28;20399;-67
2021/10/31 04:28:09;;;;;;;9.55;2.47;;;14.40;99.90;;;;;;5098848;28;20016;-68
2021/10/31 04:30:35;;;;;;;13.45;2.72;;;14.50;99.90;;;;;;5098632;28;20099;-68
2021/10/31 04:33:01;;;;;;;11.88;2.40;;;14.40;99.90;;;;;;5098882;28;20073;-68
2021/10/31 04:35:27;;;;;;;12.02;2.35;;;14.50;99.90;;;;;;5098584;28;20055;-67
2021/10/31 04:37:56;;;;;;;9.77;2.17;;;14.50;99.90;;;;;;5097262;28;20041;-68
2021/10/31 04:40:24;;;;;;;7.15;1.92;;;14.50;99.90;;;;;;5098418;28;20024;-68
2021/10/31 04:42:53;;;;;;;9.85;2.28;;;14.50;99.90;;;;;;5098810;28;20013;-68
2021/10/31 04:45:20;;;;;;;12.30;2.45;;;14.50;99.90;;;;;;5098342;28;20016;-67
2021/10/31 04:47:45;;;;;;;9.07;1.98;;;14.60;99.90;;;;;;5097077;28;20488;-68
2021/10/31 04:50:11;;;;;;;14.30;3.00;;;14.40;99.90;;;;;;5098255;28;20081;-68
2021/10/31 04:52:42;;;;;;;13.60;1.90;;;14.50;99.90;;;;;;5098213;28;20085;-68
2021/10/31 04:55:09;;;;;;;8.02;1.77;;;14.40;99.90;;;;;;5097947;28;20024;-68
2021/10/31 04:57:35;;;;;;;18.13;2.25;;;14.50;99.90;;;;;;5098061;28;20408;-68
2021/10/31 05:00:03;;;;;;;13.07;2.28;;;14.40;99.90;;;;;;5100799;28;20035;-67
2021/10/31 05:02:29;;;;;;;7.22;1.80;;;14.40;99.90;;;;;;5108377;28;20020;-68
2021/10/31 05:04:55;;;;;;;8.93;1.80;;;14.50;99.90;;;;;;5098285;28;20111;-68
2021/10/31 05:07:21;;;;;;;11.18;1.85;;;14.40;99.90;;;;;;5097740;28;20047;-67
2021/10/31 05:09:47;;;;;;;8.35;1.42;;;14.50;99.90;;;;;;5098183;28;20103;-68
2021/10/31 05:12:12;;;;;;;8.57;2.38;;;14.50;99.90;;;;;;5098100;28;20012;-68
2021/10/31 05:14:39;;;;;;;9.73;1.98;;;14.50;99.90;;;;;;5098184;28;20388;-68
2021/10/31 05:17:05;;;;;;;3.55;1.40;;;14.50;99.90;;;;;;5097688;28;20022;-68
2021/10/31 05:19:31;;;;;;;5.97;1.95;;;14.60;99.90;;;;;;5097853;28;20113;-67
2021/10/31 05:21:57;;;;;;;8.05;1.55;;;14.50;99.90;;;;;;5097516;28;20024;-68
2021/10/31 05:24:23;;;;;;;5.63;1.48;;;14.60;99.90;;;;;;5097731;28;20032;-67
2021/10/31 05:26:49;;;;;;;10.80;2.88;;;14.50;99.90;;;;;;5097738;28;20492;-68
2021/10/31 05:29:15;;;;;;;12.20;2.38;;;14.60;99.90;;;;;;5097768;28;20016;-68
2021/10/31 05:31:41;;;;;;;12.48;1.77;;;14.60;99.90;;;;;;5097764;28;20032;-68
2021/10/31 05:34:07;;;;;;;9.10;2.22;;;14.70;99.90;;;;;;5097635;28;20079;-68
2021/10/31 05:36:35;;;;;;;11.73;2.78;;;14.70;99.90;;;;;;5097436;28;20379;-68
2021/10/31 05:39:01;;;;;;;8.25;2.20;;;14.80;99.90;;;;;;5097841;28;20027;-67
2021/10/31 05:41:27;;;;;;;7.47;1.83;;;14.80;99.90;;;;;;5097585;28;20020;-68
2021/10/31 05:43:52;;;;;;;11.07;2.60;;;14.80;99.90;;;;;;5097508;28;20080;-67
2021/10/31 05:46:18;;;;;;;11.02;3.28;;;14.80;99.90;;;;;;5097534;28;20020;-67
2021/10/31 05:48:44;;;;;;;10.45;2.45;;;14.80;99.90;;;;;;5097517;28;20020;-68
2021/10/31 05:51:10;;;;;;;15.75;2.90;;;14.90;99.90;;;;;;5097243;28;20843;-67
2021/10/31 05:53:36;;;;;;;11.70;1.85;;;14.70;99.90;;;;;;5097333;28;20102;-68
2021/10/31 05:56:04;;;;;;;12.07;2.30;;;14.90;99.90;;;;;;5097639;28;20052;-67
2021/10/31 05:58:30;;;;;;;9.65;2.25;;;14.80;99.90;;;;;;5097362;28;20154;-68
2021/10/31 06:00:56;;;;;;;11.20;2.13;;;15.00;99.90;;;;;;5108195;28;20419;-67
2021/10/31 06:03:23;;;;;;;10.77;2.60;;;14.90;99.90;;;;;;5100417;28;20019;-67
2021/10/31 06:05:49;;;;;;;11.38;2.30;;;15.00;99.90;;;;;;5097111;28;20030;-68
2021/10/31 06:08:17;;;;;;;12.45;2.35;;;15.00;99.90;;;;;;5097171;28;20016;-67
2021/10/31 06:10:47;;;;;;;10.30;2.47;;;14.90;99.90;;;;;;5097484;28;20020;-67
2021/10/31 06:13:14;;;;;;;8.07;2.10;;;14.90;99.90;;;;;;5097241;28;20063;-68
2021/10/31 06:15:41;;;;;;;8.70;2.67;;;15.00;99.90;;;;;;5097506;28;20357;-68
2021/10/31 06:18:07;;;;;;;7.97;2.15;;;15.00;99.90;;;;;;5097097;28;20077;-68
2021/10/31 06:20:33;;;;;;;7.65;1.90;;;14.90;99.90;;;;;;5097228;28;20042;-68
2021/10/31 06:22:59;;;;;;;12.18;3.75;;;14.80;99.90;;;;;;5096989;28;20024;-67
2021/10/31 06:25:25;;;;;;;9.05;2.85;;;14.80;99.90;;;;;;5097433;28;20604;-67
2021/10/31 06:27:51;;;;;;;16.10;3.15;;;14.90;99.90;;;;;;5095734;28;20024;-67
2021/10/31 06:30:17;;;;;;;10.32;2.53;;;14.80;99.90;;;;;;5101121;28;20391;-68
2021/10/31 06:32:43;;;;;;;11.95;3.25;;;14.80;99.90;;;;;;5100935;28;20042;-68
2021/10/31 06:35:09;;;;;;;14.63;2.60;;;14.80;99.90;;;;;;5099693;28;20050;-67
2021/10/31 06:37:35;;;;;;;16.80;2.80;;;14.70;99.90;;;;;;5099204;28;20553;-67
2021/10/31 06:40:02;;;;;;;8.68;2.63;;;14.70;99.90;;;;;;5101012;28;20024;-68
2021/10/31 06:42:29;;;;;;;10.68;1.98;;;14.60;99.90;;;;;;5100755;28;20020;-67
2021/10/31 06:44:55;;;;;;;15.63;3.03;;;14.60;99.90;;;;;;5101164;28;20047;-67
2021/10/31 06:47:22;;;;;;;15.85;2.22;;;14.60;99.90;;;;;;5099260;28;20028;-67
2021/10/31 06:49:48;;;;;;;7.18;2.88;;;14.50;99.90;;;;;;5100766;28;20472;-67
2021/10/31 06:52:14;;;;;;;14.32;2.40;;;14.60;99.90;;;;;;5100461;28;20016;-68
2021/10/31 06:54:40;;;;;;;14.02;2.22;;;14.40;99.90;;;;;;5100834;28;20480;-67
2021/10/31 06:57:06;;;;;;;10.32;2.50;;;14.40;99.90;;;;;;5100412;28;20519;-67
2021/10/31 06:59:32;;;;;;;13.52;2.33;;;14.40;99.90;;;;;;5099293;28;20035;-67
2021/10/31 07:01:59;;;;;;;8.75;2.22;;;14.40;99.90;;;;;;5113242;28;20020;-67
2021/10/31 07:04:26;;;;;;;9.13;3.17;;;14.50;99.90;;;;;;5100643;28;20023;-67
2021/10/31 07:06:53;;;;;;;11.07;2.22;;;14.40;99.90;;;;;;5100021;28;20028;-68
2021/10/31 07:09:19;;;;;;;11.13;2.63;;;14.50;99.90;;;;;;5100464;28;20038;-67
2021/10/31 07:11:45;;;;;;;7.22;2.05;;;14.40;99.90;;;;;;5100334;28;20024;-68
2021/10/31 07:14:11;;;;;;;17.63;3.08;;;14.50;99.90;;;;;;5099030;28;20031;-67
2021/10/31 07:16:37;;;;;;;11.13;2.60;;;14.40;99.90;;;;;;5100437;28;20024;-67
2021/10/31 07:19:03;;;;;;;12.10;2.40;;;14.40;99.90;;;;;;5100357;28;20023;-67
2021/10/31 07:21:29;;;;;;;9.88;3.35;;;14.30;99.90;;;;;;5099813;28;20028;-67
2021/10/31 07:23:56;;;;;;;12.40;2.47;;;14.50;99.90;;;;;;5100023;28;20092;-67
2021/10/31 07:26:21;;;;;;;10.35;3.08;;;14.50;99.90;;;;;;5100173;28;20031;-67
2021/10/31 07:28:47;;;;;;;9.13;2.72;;;14.50;99.90;;;;;;5099885;28;20016;-68
2021/10/31 07:31:15;;;;;;;15.90;3.22;;;14.50;99.90;;;;;;5100118;28;20024;-67
2021/10/31 07:33:41;;;;;;;11.15;3.50;;;14.50;99.90;;;;;;5099813;28;20043;-68
2021/10/31 07:36:07;;;;;;;18.20;3.80;;;14.50;99.90;;;;;;5099897;28;20031;-67
2021/10/31 07:38:34;;;;;;;13.30;3.08;;;14.60;99.90;;;;;;5099656;28;20049;-67
2021/10/31 07:41:00;;;;;;;15.13;3.95;;;14.50;99.90;;;;;;5099525;28;20027;-67
2021/10/31 07:43:26;;;;;;;14.35;3.50;;;14.60;99.90;;;;;;5099734;28;20507;-67
2021/10/31 07:45:53;;;;;;;16.50;4.03;;;14.60;99.90;;;;;;5100102;28;20116;-67
2021/10/31 07:48:18;;;;;;;16.20;4.43;;;14.70;99.90;;;;;;5098512;28;20387;-67
2021/10/31 07:50:44;;;;;;;12.60;3.75;;;14.60;99.90;;;;;;5099500;28;20400;-67
2021/10/31 07:53:12;;;;;;;10.98;3.72;;;14.60;99.90;;;;;;5099292;28;20395;-67
2021/10/31 07:55:39;;;;;;;13.75;3.67;;;14.70;99.90;;;;;;5099443;28;20031;-67
2021/10/31 07:58:07;;;;;;;23.05;4.43;;;14.60;99.90;;;;;;5099577;28;20481;-67
2021/10/31 08:00:34;;;;;;;20.65;3.47;;;14.70;99.90;;;;;;5106690;28;20490;-67
2021/10/31 08:03:00;;;;;;;21.02;4.10;;;14.80;99.90;;;;;;5105244;28;20020;-67
2021/10/31 08:05:27;;;;;;;15.43;3.65;;;14.70;99.90;;;;;;5099183;28;20440;-67
2021/10/31 08:07:54;;;;;;;11.80;3.50;;;14.80;99.90;;;;;;5098962;28;20054;-67
2021/10/31 08:10:21;;;;;;;13.02;3.50;;;14.80;99.90;;;;;;5099452;28;20062;-67
2021/10/31 08:12:47;;;;;;;14.90;3.10;;;14.70;99.90;;;;;;5099220;28;20016;-67
2021/10/31 08:15:14;;;;;;;14.15;3.65;;;14.70;99.90;;;;;;5099192;28;20022;-67
2021/10/31 08:17:40;;;;;;;13.88;3.22;;;14.90;99.90;;;;;;5098935;28;20396;-67
2021/10/31 08:20:06;;;;;;;13.00;3.47;;;14.70;99.90;;;;;;5099323;28;20024;-67
2021/10/31 08:22:32;;;;;;;8.85;2.17;;;14.80;99.90;;;;;;5098655;28;20016;-67
2021/10/31 08:24:58;;;;;;;5.18;1.58;;;14.90;99.90;;;;;;5097725;28;20027;-67
2021/10/31 08:27:24;;;;;;;3.63;1.73;;;14.40;99.90;;;;;;5097399;28;20032;-66
2021/10/31 08:29:51;;;;;;;4.97;1.35;;;14.10;99.90;;;;;;5098843;28;20027;-66
2021/10/31 08:32:18;;;;;;;6.80;1.42;;;14.00;99.90;;;;;;5098633;28;20012;-66
2021/10/31 08:34:44;;;;;;;3.75;1.08;;;13.70;99.90;;;;;;5099023;28;20069;-66
2021/10/31 08:37:09;;;;;;;2.65;1.00;;;13.60;99.90;;;;;;5098252;28;20035;-66
2021/10/31 08:39:35;;;;;;;3.42;1.02;;;13.80;99.90;;;;;;5098922;28;20024;-66
2021/10/31 08:42:02;;;;;;;6.53;1.50;;;13.40;99.90;;;;;;5098417;28;20028;-66
2021/10/31 08:44:28;;;;;;;6.15;2.22;;;13.20;99.90;;;;;;5098744;28;20028;-67
2021/10/31 08:46:53;;;;;;;5.00;1.50;;;13.00;99.90;;;;;;5098289;28;20081;-67
2021/10/31 08:49:20;;;;;;;6.28;1.65;;;13.20;99.90;;;;;;5098884;28;20024;-67
2021/10/31 08:51:46;;;;;;;6.97;1.42;;;13.10;99.90;;;;;;5097068;28;20024;-67
2021/10/31 08:54:12;;;;;;;5.93;1.10;;;13.20;99.90;;;;;;5098739;28;20027;-67
2021/10/31 08:56:37;;;;;;;2.78;1.08;;;13.30;99.90;;;;;;5098147;28;20052;-67
2021/10/31 08:59:03;;;;;;;4.25;1.50;;;13.20;99.90;;;;;;5098729;28;20020;-67
2021/10/31 09:01:32;;;;;;;4.35;1.55;;;13.30;99.90;;;;;;5111377;28;20393;-67
2021/10/31 09:03:59;;;;;;;8.95;2.28;;;13.20;99.90;;;;;;5098273;28;20035;-67
2021/10/31 09:06:26;;;;;;;6.78;1.55;;;13.20;99.90;;;;;;5097968;28;20028;-66
2021/10/31 09:08:52;;;;;;;6.03;1.33;;;13.30;99.90;;;;;;5098082;28;20094;-66
2021/10/31 09:11:18;;;;;;;3.78;1.17;;;13.30;99.90;;;;;;5098042;28;20032;-67
2021/10/31 09:13:44;;;;;;;5.43;1.08;;;13.30;99.90;;;;;;5098093;28;20027;-66
2021/10/31 09:16:10;;;;;;;6.60;1.55;;;13.40;99.90;;;;;;5097933;28;20024;-66
2021/10/31 09:18:37;;;;;;;12.23;1.80;;;13.40;99.90;;;;;;5096714;28;20031;-67
2021/10/31 09:21:04;;;;;;;6.50;2.00;;;13.50;99.90;;;;;;5097631;28;20024;-67
2021/10/31 09:23:32;;;;;;;8.55;1.90;;;13.50;99.90;;;;;;5098023;28;20032;-67
2021/10/31 09:25:58;;;;;;;4.80;1.98;;;13.50;99.90;;;;;;5097762;28;20495;-67
2021/10/31 09:28:24;;;;;;;6.00;2.28;;;13.50;99.90;;;;;;5098052;28;20047;-67
2021/10/31 09:30:50;;;;;;;4.97;2.17;;;13.60;99.90;;;;;;5096351;28;20031;-67
2021/10/31 09:33:15;;;;;;;5.90;2.00;;;13.50;99.90;;;;;;5097786;28;20020;-66
2021/10/31 09:35:56;;;;;;;6.95;1.42;;;13.50;99.90;;;;;;5097466;28;20047;-67
2021/10/31 09:38:25;;;;;;;3.88;1.30;;;13.50;99.90;;;;;;5097620;28;20020;-66
2021/10/31 09:40:51;;;;;;;4.43;1.95;;;13.40;99.90;;;;;;5097449;28;20048;-66
2021/10/31 09:43:17;;;;;;;5.13;1.90;;;13.60;99.90;;;;;;5097593;28;20047;-67
2021/10/31 09:45:43;;;;;;;6.28;1.35;;;13.40;99.90;;;;;;5097670;28;20021;-67
2021/10/31 09:48:11;;;;;;;9.98;1.52;;;13.50;99.90;;;;;;5097758;28;20035;-67
2021/10/31 09:50:43;;;;;;;5.68;1.17;;;13.40;99.90;;;;;;5097097;28;20489;-67
2021/10/31 09:53:11;;;;;;;5.22;1.23;;;13.40;99.90;;;;;;5097305;28;20035;-67
2021/10/31 09:55:40;;;;;;;9.02;1.52;;;13.60;99.90;;;;;;5097368;28;20012;-67
2021/10/31 09:58:12;;;;;;;6.93;1.42;;;13.70;99.90;;;;;;5097586;28;20024;-67
2021/10/31 10:00:47;;;;;;;5.63;1.50;;;14.20;99.90;;;;;;5105488;28;20110;-67
2021/10/31 10:03:49;;;;;;;7.68;1.60;;;15.30;99.90;;;;;;5103713;28;20028;-67
2021/10/31 10:06:19;;;;;;;7.30;1.92;;;15.50;99.90;;;;;;5099039;28;20044;-67
2021/10/31 10:09:04;;;;;;;3.63;1.13;;;16.50;99.90;;;;;;5101548;28;20079;-67
2021/10/31 10:11:33;;;;;;;9.85;2.00;;;16.80;99.90;;;;;;5101616;28;20027;-67
2021/10/31 10:14:12;;;;;;;9.57;2.20;;;17.10;99.90;;;;;;5101489;28;20115;-67
2021/10/31 10:16:40;;;;;;;9.05;1.50;;;17.30;99.90;;;;;;5101409;28;20039;-67
2021/10/31 10:19:21;;;;;;;9.82;1.63;;;17.30;99.90;;;;;;5101879;28;20032;-68
2021/10/31 10:22:05;;;;;;;9.02;1.70;;;17.50;99.90;;;;;;5101069;28;20059;-67
2021/10/31 10:24:33;;;;;;;7.25;1.75;;;17.50;99.90;;;;;;5101408;28;20039;-68
2021/10/31 10:27:03;;;;;;;14.90;2.20;;;18.00;99.90;;;;;;5101180;28;20023;-68
2021/10/31 10:29:31;;;;;;;10.73;1.95;;;18.10;99.90;;;;;;5101108;28;20548;-68
2021/10/31 10:32:11;;;;;;;12.68;1.98;;;18.10;99.90;;;;;;5100980;28;20083;-68
2021/10/31 10:34:47;;;;;;;9.07;2.03;;;18.50;99.90;;;;;;5101177;28;20028;-68
2021/10/31 10:37:19;;;;;;;9.57;2.05;;;18.40;99.90;;;;;;5100727;28;20024;-68
2021/10/31 10:39:52;;;;;;;8.82;2.70;;;18.10;99.90;;;;;;5100958;28;20032;-67
2021/10/31 10:42:34;;;;;;;8.50;1.73;;;18.00;99.90;;;;;;5100834;28;20020;-68
2021/10/31 10:45:05;;;;;;;9.07;2.05;;;18.00;99.90;;;;;;5099806;28;20505;-67
2021/10/31 10:47:56;;;;;;;10.10;1.85;;;17.60;99.90;;;;;;5100861;28;20024;-67
2021/10/31 10:50:30;;;;;;;9.25;2.03;;;17.50;99.90;;;;;;5100354;28;20032;-69
2021/10/31 10:52:56;;;;;;;11.82;2.63;;;17.70;99.90;;;;;;5100686;28;20024;-68
2021/10/31 10:55:27;;;;;;;15.57;2.67;;;17.60;99.90;;;;;;5100362;28;20052;-68
2021/10/31 10:57:56;;;;;;;12.32;2.28;;;17.80;99.90;;;;;;5101004;28;20038;-68
2021/10/31 11:00:27;;;;;;;8.55;1.92;;;18.40;99.90;;;;;;5106332;28;20020;-68
2021/10/31 11:03:08;;;;;;;9.05;2.38;;;19.10;99.90;;;;;;5106225;28;20111;-68
2021/10/31 11:05:37;;;;;;;11.77;2.30;;;19.30;99.90;;;;;;5099062;28;20473;-68
2021/10/31 11:08:17;;;;;;;13.93;2.40;;;19.90;99.90;;;;;;5100350;28;20024;-68
2021/10/31 11:10:55;;;;;;;14.20;2.67;;;20.30;99.90;;;;;;5100587;28;20050;-68
2021/10/31 11:13:22;;;;;;;11.02;2.70;;;20.40;99.90;;;;;;5100230;28;20032;-68
2021/10/31 11:15:48;;;;;;;14.57;3.17;;;20.40;99.90;;;;;;5099807;28;20027;-68
2021/10/31 11:18:15;;;;;;;13.13;2.55;;;20.70;99.90;;;;;;5100053;28;20021;-68
2021/10/31 11:20:43;;;;;;;14.43;2.83;;;21.50;99.90;;;;;;5099992;28;20009;-68
2021/10/31 11:23:13;;;;;;;19.17;3.30;;;22.00;99.90;;;;;;5099871;28;20028;-68
2021/10/31 11:25:42;;;;;;;12.15;2.97;;;22.10;99.90;;;;;;5100100;28;20016;-68
2021/10/31 11:28:12;;;;;;;12.43;2.97;;;22.10;99.90;;;;;;5100295;28;20074;-68
2021/10/31 11:30:39;;;;;;;13.48;2.60;;;22.20;99.90;;;;;;5098884;28;20024;-68
2021/10/31 11:33:06;;;;;;;14.65;3.45;;;22.30;99.90;;;;;;5098707;28;20035;-69
2021/10/31 11:35:33;;;;;;;8.23;3.22;;;22.50;99.90;;;;;;5099675;28;20023;-68
2021/10/31 11:38:07;;;;;;;14.40;2.88;;;22.00;99.90;;;;;;5099816;28;20032;-68
2021/10/31 11:40:51;;;;;;;13.57;2.70;;;21.10;99.90;;;;;;5099696;28;20043;-68
2021/10/31 11:43:23;;;;;;;14.68;2.75;;;20.10;99.90;;;;;;5099794;28;20020;-68
2021/10/31 11:45:52;;;;;;;8.50;2.58;;;19.40;99.90;;;;;;5099741;28;20027;-68
2021/10/31 11:48:29;;;;;;;7.50;2.20;;;19.40;99.90;;;;;;5099636;28;20050;-68
2021/10/31 11:51:02;;;;;;;10.77;3.17;;;19.90;99.90;;;;;;5098331;28;20052;-68
2021/10/31 11:53:33;;;;;;;8.70;2.38;;;20.80;99.90;;;;;;5097999;28;20024;-68
2021/10/31 11:56:02;;;;;;;13.40;2.90;;;21.70;99.90;;;;;;5099368;28;20653;-68
2021/10/31 11:58:33;;;;;;;15.43;3.08;;;22.10;99.90;;;;;;5099304;28;20103;-68
2021/10/31 12:01:01;;;;;;;21.73;3.80;;;22.30;99.90;;;;;;5110399;28;20023;-69
2021/10/31 12:03:33;;;;;;;8.82;2.42;;;21.90;99.90;;;;;;5101489;28;20039;-69
2021/10/31 12:06:22;;;;;;;16.60;3.65;;;21.00;99.90;;;;;;5097770;28;20158;-69
2021/10/31 12:08:59;;;;;;;14.32;3.05;;;19.90;99.90;;;;;;5097769;28;20110;-68
2021/10/31 12:11:31;;;;;;;7.97;2.53;;;18.90;99.90;;;;;;5097833;28;20031;-68
2021/10/31 12:13:59;;;;;;;7.03;2.22;;;18.40;99.90;;;;;;5099430;28;20365;-69
2021/10/31 12:16:25;;;;;;;11.95;2.65;;;18.50;99.90;;;;;;5098886;28;20028;-69
2021/10/31 12:18:56;;;;;;;9.98;2.13;;;18.90;99.90;;;;;;5097782;28;20052;-68
2021/10/31 12:21:33;;;;;;;14.63;2.65;;;19.10;99.90;;;;;;5098996;28;20016;-68
2021/10/31 12:24:05;;;;;;;9.07;2.28;;;19.20;99.90;;;;;;5097656;28;20023;-68
2021/10/31 12:27:07;;;;;;;10.10;2.22;;;19.40;99.90;;;;;;5098220;28;20444;-69
2021/10/31 12:29:34;;;;;;;7.40;1.92;;;19.70;99.90;;;;;;5097488;28;20024;-69
2021/10/31 12:32:07;;;;;;;10.57;2.15;;;20.30;99.90;;;;;;5097761;28;20060;-69
2021/10/31 12:34:38;;;;;;;10.82;2.33;;;21.00;99.90;;;;;;5097987;28;20118;-69
2021/10/31 12:37:22;;;;;;;14.25;2.85;;;21.50;99.90;;;;;;5098253;28;20059;-68
2021/10/31 12:40:05;;;;;;;11.02;2.70;;;21.40;99.90;;;;;;5098682;28;20048;-69
2021/10/31 12:42:47;;;;;;;9.38;2.00;;;21.10;99.90;;;;;;5098858;28;20020;-68
2021/10/31 12:45:16;;;;;;;9.02;2.75;;;21.00;99.90;;;;;;5098620;28;20024;-68
2021/10/31 12:47:54;;;;;;;10.38;2.97;;;20.70;99.90;;;;;;5098727;28;20024;-69
2021/10/31 12:50:26;;;;;;;14.38;3.13;;;21.00;99.90;;;;;;5098225;28;20036;-69
2021/10/31 12:53:04;;;;;;;8.65;2.22;;;20.80;99.90;;;;;;5098325;28;20093;-69
2021/10/31 12:55:31;;;;;;;9.00;2.50;;;20.60;99.90;;;;;;5098064;28;20024;-68